Time;durP1;ratioP1;P1;durP2;ratioP2;P2;SDS_P1;SDS_P2;PMS_P1;PMS_P2;Temp;Humidity;BMP_temperature;BMP_pressure;BME280_temperature;BME280_humidity;BME280_pressure;Samples;Min_cycle;Max_cycle;Signal;HPM_P1;HPM_P2
2021/11/20 00:01:30;;;;;;;118.45;49.17;;;;;;;;;;5050941;28;20424;-88
2021/11/20 00:03:59;;;;;;;138.02;48.33;;;;;;;;;;5047647;28;20395;-89
2021/11/20 00:06:29;;;;;;;91.28;45.35;;;;;;;;;;5050018;28;20402;-88
2021/11/20 00:08:58;;;;;;;132.57;48.58;;;;;;;;;;5046194;28;20415;-89
2021/11/20 00:11:31;;;;;;;150.52;50.75;;;;;;;;;;5046521;28;20404;-88
2021/11/20 00:13:58;;;;;;;136.70;49.40;;;;;;;;;;5048817;28;20803;-88
2021/11/20 00:16:26;;;;;;;120.10;48.95;;;;;;;;;;5050747;28;20402;-89
2021/11/20 00:18:54;;;;;;;113.82;49.58;;;;;;;;;;5047442;28;20411;-89
2021/11/20 00:21:26;;;;;;;120.87;48.97;;;;;;;;;;5048359;28;20794;-88
2021/11/20 00:23:57;;;;;;;140.05;51.20;;;;;;;;;;5045546;28;20412;-88
2021/11/20 00:26:33;;;;;;;121.93;49.10;;;;;;;;;;5046552;28;20408;-89
2021/11/20 00:29:17;;;;;;;85.80;46.63;;;;;;;;;;5057654;28;20805;-88
2021/11/20 00:31:47;;;;;;;91.85;48.47;;;;;;;;;;5046366;28;20407;-89
2021/11/20 00:34:16;;;;;;;92.45;48.22;;;;;;;;;;5050933;28;20407;-88
2021/11/20 00:36:45;;;;;;;91.05;48.20;;;;;;;;;;5049937;28;20400;-88
2021/11/20 00:39:14;;;;;;;83.43;48.05;;;;;;;;;;5051656;28;20414;-88
2021/11/20 00:41:41;;;;;;;79.18;47.00;;;;;;;;;;5072361;28;20403;-89
2021/11/20 00:44:09;;;;;;;71.28;46.40;;;;;;;;;;5052640;28;20412;-89
2021/11/20 00:46:36;;;;;;;86.93;49.10;;;;;;;;;;5049223;28;20404;-88
2021/11/20 00:49:04;;;;;;;73.30;48.53;;;;;;;;;;5050266;28;20894;-88
2021/11/20 00:51:32;;;;;;;106.75;50.70;;;;;;;;;;5044605;28;21038;-87
2021/11/20 00:54:02;;;;;;;70.07;49.67;;;;;;;;;;5045823;28;20434;-89
2021/11/20 00:56:31;;;;;;;82.20;50.53;;;;;;;;;;5045258;28;20478;-88
2021/11/20 00:58:58;;;;;;;72.28;49.28;;;;;;;;;;5049047;28;20426;-89
2021/11/20 01:01:29;;;;;;;70.40;49.22;;;;;;;;;;5046994;28;20422;-89
2021/11/20 01:03:57;;;;;;;68.68;48.47;;;;;;;;;;5047325;28;20412;-87
2021/11/20 01:06:25;;;;;;;66.55;48.47;;;;;;;;;;5046063;28;20411;-88
2021/11/20 01:08:54;;;;;;;69.47;48.50;;;;;;;;;;5048895;28;20435;-89
2021/11/20 01:11:25;;;;;;;68.35;47.95;;;;;;;;;;5044722;28;20414;-89
2021/11/20 01:13:54;;;;;;;67.45;47.83;;;;;;;;;;5044971;28;20465;-88
2021/11/20 01:16:22;;;;;;;65.63;48.03;;;;;;;;;;5046477;28;20404;-87
2021/11/20 01:18:49;;;;;;;75.77;49.80;;;;;;;;;;5041595;28;20429;-88
2021/11/20 01:21:17;;;;;;;64.22;48.78;;;;;;;;;;5045267;28;20497;-88
2021/11/20 01:23:46;;;;;;;68.13;49.13;;;;;;;;;;5048991;28;20412;-88
2021/11/20 01:26:14;;;;;;;64.30;48.70;;;;;;;;;;5043547;28;20408;-89
2021/11/20 01:28:45;;;;;;;65.80;49.38;;;;;;;;;;5044214;28;20776;-87
2021/11/20 01:31:13;;;;;;;71.95;50.03;;;;;;;;;;5052718;28;20406;-87
2021/11/20 01:33:42;;;;;;;75.90;49.20;;;;;;;;;;5049674;28;20397;-87
2021/11/20 01:36:10;;;;;;;72.40;48.15;;;;;;;;;;5050238;28;20942;-89
2021/11/20 01:38:38;;;;;;;98.60;46.17;;;;;;;;;;5049295;28;21890;-88
2021/11/20 01:41:06;;;;;;;72.00;45.70;;;;;;;;;;5054886;28;20419;-87
2021/11/20 01:43:33;;;;;;;102.10;49.42;;;;;;;;;;5049187;28;20395;-88
2021/11/20 01:46:04;;;;;;;122.00;53.03;;;;;;;;;;5048636;28;20452;-86
2021/11/20 01:48:46;;;;;;;77.13;50.27;;;;;;;;;;5049014;28;20400;-88
2021/11/20 01:51:18;;;;;;;87.13;47.50;;;;;;;;;;5050559;28;20414;-87
2021/11/20 01:53:51;;;;;;;86.43;47.22;;;;;;;;;;5048655;28;20404;-86
2021/11/20 01:56:21;;;;;;;100.37;45.30;;;;;;;;;;5049409;28;20407;-88
2021/11/20 01:58:52;;;;;;;91.13;44.33;;;;;;;;;;5054462;28;20391;-88
2021/11/20 02:01:25;;;;;;;134.75;44.80;;;;;;;;;;5045489;28;20427;-88
2021/11/20 02:04:00;;;;;;;115.38;45.70;;;;;;;;;;5054023;28;20404;-88
2021/11/20 02:06:36;;;;;;;83.38;44.85;;;;;;;;;;5048329;28;20411;-88
2021/11/20 02:09:09;;;;;;;97.17;44.03;;;;;;;;;;5048976;28;20403;-88
2021/11/20 02:11:41;;;;;;;116.05;45.15;;;;;;;;;;5048770;28;20404;-88
2021/11/20 02:14:10;;;;;;;90.75;43.75;;;;;;;;;;5049975;28;20423;-87
2021/11/20 02:16:42;;;;;;;119.15;46.15;;;;;;;;;;5048303;28;20763;-89
2021/11/20 02:19:13;;;;;;;95.82;45.08;;;;;;;;;;5054401;28;20440;-86
2021/11/20 02:21:51;;;;;;;100.05;44.25;;;;;;;;;;5055046;28;20773;-87
2021/11/20 02:24:18;;;;;;;66.90;43.05;;;;;;;;;;5046863;28;20768;-88
2021/11/20 02:26:44;;;;;;;61.00;39.78;;;;;;;;;;5048120;28;20564;-88
2021/11/20 02:29:14;;;;;;;65.30;39.42;;;;;;;;;;5047890;28;20440;-88
2021/11/20 02:31:45;;;;;;;63.33;38.57;;;;;;;;;;5048584;28;20899;-88
2021/11/20 02:34:13;;;;;;;61.10;35.38;;;;;;;;;;5066697;28;20401;-88
2021/11/20 02:36:40;;;;;;;45.20;34.15;;;;;;;;;;5050250;28;20409;-88
2021/11/20 02:39:13;;;;;;;48.63;35.03;;;;;;;;;;5051997;28;20404;-88
2021/11/20 02:41:44;;;;;;;64.30;33.83;;;;;;;;;;5048983;28;20416;-88
2021/11/20 02:44:13;;;;;;;92.38;34.30;;;;;;;;;;5053122;28;20403;-88
2021/11/20 02:46:44;;;;;;;159.52;36.75;;;;;;;;;;5047982;28;20411;-88
2021/11/20 02:49:11;;;;;;;92.63;35.50;;;;;;;;;;5046834;28;20399;-88
2021/11/20 02:51:41;;;;;;;141.50;37.10;;;;;;;;;;5046294;28;20400;-88
2021/11/20 02:54:10;;;;;;;68.70;34.92;;;;;;;;;;5053523;28;20414;-87
2021/11/20 02:56:42;;;;;;;124.93;37.92;;;;;;;;;;5057443;28;20401;-88
2021/11/20 02:59:09;;;;;;;177.73;38.38;;;;;;;;;;5047398;28;20396;-87
2021/11/20 03:01:40;;;;;;;158.38;36.83;;;;;;;;;;5048885;28;20426;-88
2021/11/20 03:04:10;;;;;;;159.83;37.03;;;;;;;;;;5050534;28;20426;-88
2021/11/20 03:06:37;;;;;;;175.57;37.93;;;;;;;;;;5055335;28;20408;-88
2021/11/20 03:09:05;;;;;;;176.85;37.58;;;;;;;;;;5057599;28;20891;-87
2021/11/20 03:11:33;;;;;;;163.95;36.53;;;;;;;;;;5053004;28;20399;-88
2021/11/20 03:14:04;;;;;;;180.03;37.13;;;;;;;;;;5047349;28;20395;-88
2021/11/20 03:16:32;;;;;;;169.77;35.65;;;;;;;;;;5054697;28;20419;-88
2021/11/20 03:18:59;;;;;;;142.45;36.45;;;;;;;;;;5060423;28;20406;-87
2021/11/20 03:21:28;;;;;;;120.07;33.85;;;;;;;;;;5050364;28;20867;-88
2021/11/20 03:24:00;;;;;;;89.70;33.00;;;;;;;;;;5059269;28;20782;-88
2021/11/20 03:26:27;;;;;;;88.45;32.72;;;;;;;;;;5058788;28;20449;-87
2021/11/20 03:28:54;;;;;;;94.28;33.25;;;;;;;;;;5059781;28;20405;-88
2021/11/20 03:31:21;;;;;;;111.93;34.40;;;;;;;;;;5056360;28;20405;-88
2021/11/20 03:33:48;;;;;;;90.43;33.88;;;;;;;;;;5060209;28;20805;-88
2021/11/20 03:36:16;;;;;;;98.97;34.55;;;;;;;;;;5046701;28;20428;-87
2021/11/20 03:38:45;;;;;;;114.55;29.50;;;;;;;;;;5056363;28;20396;-88
2021/11/20 03:41:13;;;;;;;115.28;31.10;;;;;;;;;;5038902;28;20419;-89
2021/11/20 03:43:40;;;;;;;81.63;31.33;;;;;;;;;;5058210;28;20874;-89
2021/11/20 03:46:07;;;;;;;63.63;30.70;;;;;;;;;;5073585;28;20819;-86
2021/11/20 03:48:35;;;;;;;100.07;30.92;;;;;;;;;;5055890;28;20411;-88
2021/11/20 03:51:03;;;;;;;85.85;29.05;;;;;;;;;;5046425;28;20411;-87
2021/11/20 03:53:31;;;;;;;62.83;28.37;;;;;;;;;;5056367;28;20410;-88
2021/11/20 03:56:00;;;;;;;97.22;28.33;;;;;;;;;;5052469;28;20403;-88
2021/11/20 03:58:27;;;;;;;107.45;28.83;;;;;;;;;;5051986;28;20407;-88
2021/11/20 04:00:57;;;;;;;131.23;31.15;;;;;;;;;;5057694;28;20409;-87
2021/11/20 04:03:24;;;;;;;120.00;30.70;;;;;;;;;;5054847;28;20424;-88
2021/11/20 04:05:53;;;;;;;85.03;29.83;;;;;;;;;;5053533;28;20405;-88
2021/11/20 04:08:20;;;;;;;123.90;30.67;;;;;;;;;;5051250;28;20404;-89
2021/11/20 04:10:49;;;;;;;105.10;29.48;;;;;;;;;;5053716;28;20416;-88
2021/11/20 04:13:18;;;;;;;129.18;29.33;;;;;;;;;;5051837;28;20414;-88
2021/11/20 04:15:46;;;;;;;104.72;28.00;;;;;;;;;;5050425;28;20463;-89
2021/11/20 04:18:13;;;;;;;93.97;27.15;;;;;;;;;;5055955;28;20794;-88
2021/11/20 04:20:41;;;;;;;124.50;26.20;;;;;;;;;;5046822;28;20448;-89
2021/11/20 04:23:08;;;;;;;115.20;28.50;;;;;;;;;;5056260;28;20809;-88
2021/11/20 04:25:36;;;;;;;90.88;27.35;;;;;;;;;;5049879;28;20416;-88
2021/11/20 04:28:03;;;;;;;112.60;28.10;;;;;;;;;;5055378;28;20883;-88
2021/11/20 04:30:32;;;;;;;62.13;26.98;;;;;;;;;;5050166;28;20404;-88
2021/11/20 04:32:59;;;;;;;100.55;29.13;;;;;;;;;;5049414;28;20407;-89
2021/11/20 04:35:27;;;;;;;108.32;27.75;;;;;;;;;;5044516;28;20410;-88
2021/11/20 04:37:54;;;;;;;84.03;28.60;;;;;;;;;;5052426;22;20448;-88
2021/11/20 04:40:21;;;;;;;238.38;33.88;;;;;;;;;;5029265;28;20405;-88
2021/11/20 04:42:48;;;;;;;50.08;26.25;;;;;;;;;;5011892;28;20385;-88
2021/11/20 04:45:17;;;;;;;129.30;31.45;;;;;;;;;;5027648;28;20417;-88
2021/11/20 04:47:46;;;;;;;80.43;27.83;;;;;;;;;;5023877;28;20404;-88
2021/11/20 04:50:14;;;;;;;102.25;29.17;;;;;;;;;;5023905;28;20411;-88
2021/11/20 04:52:42;;;;;;;230.80;33.03;;;;;;;;;;5025269;28;20447;-88
2021/11/20 04:55:11;;;;;;;96.05;28.27;;;;;;;;;;5016994;28;20440;-88
2021/11/20 04:57:38;;;;;;;80.28;29.77;;;;;;;;;;5028629;28;20428;-89
2021/11/20 05:00:08;;;;;;;68.15;27.38;;;;;;;;;;5015760;28;20409;-88
2021/11/20 05:02:35;;;;;;;141.70;30.58;;;;;;;;;;5020833;28;20417;-88
2021/11/20 05:05:04;;;;;;;158.68;31.15;;;;;;;;;;5025639;28;20413;-87
2021/11/20 05:07:31;;;;;;;187.02;32.35;;;;;;;;;;5024225;28;20402;-87
2021/11/20 05:09:59;;;;;;;182.95;32.70;;;;;;;;;;5023903;28;20416;-88
2021/11/20 05:12:26;;;;;;;148.30;32.33;;;;;;;;;;5027147;28;20454;-88
2021/11/20 05:14:53;;;;;;;116.88;29.55;;;;;;;;;;5019427;28;20413;-88
2021/11/20 05:17:20;;;;;;;178.20;32.42;;;;;;;;;;5016092;28;20411;-88
2021/11/20 05:19:47;;;;;;;141.13;29.70;;;;;;;;;;5020329;28;20423;-89
2021/11/20 05:22:15;;;;;;;187.77;33.00;;;;;;;;;;5020746;28;20836;-88
2021/11/20 05:24:42;;;;;;;166.13;33.33;;;;;;;;;;5030458;28;20738;-88
2021/11/20 05:27:09;;;;;;;151.07;33.33;;;;;;;;;;5027714;28;20470;-88
2021/11/20 05:29:42;;;;;;;224.98;33.83;;;;;;;;;;5023949;28;20430;-88
2021/11/20 05:32:10;;;;;;;177.15;31.77;;;;;;;;;;5022081;28;20948;-88
2021/11/20 05:34:37;;;;;;;108.30;27.88;;;;;;;;;;5019963;28;20436;-88
2021/11/20 05:37:05;;;;;;;162.82;33.40;;;;;;;;;;5022023;28;20405;-88
2021/11/20 05:39:34;;;;;;;118.28;29.90;;;;;;;;;;5016221;28;20403;-88
2021/11/20 05:42:01;;;;;;;155.75;33.45;;;;;;;;;;5019103;28;20403;-88
2021/11/20 05:44:29;;;;;;;49.60;27.80;;;;;;;;;;5022050;28;20461;-87
2021/11/20 05:46:59;;;;;;;129.15;30.60;;;;;;;;;;5020418;28;20407;-88
2021/11/20 05:49:27;;;;;;;136.30;30.85;;;;;;;;;;5028167;28;20405;-88
2021/11/20 05:51:57;;;;;;;112.60;29.85;;;;;;;;;;5017386;28;20430;-88
2021/11/20 05:54:26;;;;;;;102.63;31.13;;;;;;;;;;5027662;28;20507;-88
2021/11/20 05:56:54;;;;;;;67.13;29.17;;;;;;;;;;5024809;28;20463;-88
2021/11/20 05:59:22;;;;;;;86.72;29.83;;;;;;;;;;5019459;28;20405;-88
2021/11/20 06:01:50;;;;;;;82.13;30.52;;;;;;;;;;5023968;28;20405;-87
2021/11/20 06:04:23;;;;;;;81.85;30.17;;;;;;;;;;5024862;28;20426;-89
2021/11/20 06:06:50;;;;;;;93.68;28.90;;;;;;;;;;5028671;28;20418;-89
2021/11/20 06:09:17;;;;;;;85.43;30.90;;;;;;;;;;5029846;28;20413;-89
2021/11/20 06:11:44;;;;;;;60.10;29.45;;;;;;;;;;5029094;28;20413;-88
2021/11/20 06:14:12;;;;;;;82.18;28.98;;;;;;;;;;5024335;28;20411;-88
2021/11/20 06:16:43;;;;;;;65.53;29.27;;;;;;;;;;5017870;28;20418;-88
2021/11/20 06:19:11;;;;;;;73.53;29.20;;;;;;;;;;5028288;28;20401;-88
2021/11/20 06:21:38;;;;;;;85.60;29.40;;;;;;;;;;5021627;28;20422;-88
2021/11/20 06:24:06;;;;;;;62.65;29.63;;;;;;;;;;5027845;28;20417;-88
2021/11/20 06:26:34;;;;;;;54.72;28.58;;;;;;;;;;5021030;28;20399;-89
2021/11/20 06:29:01;;;;;;;54.17;27.30;;;;;;;;;;5026633;28;20433;-87
2021/11/20 06:31:30;;;;;;;66.93;28.38;;;;;;;;;;5022856;28;20429;-88
2021/11/20 06:34:00;;;;;;;77.50;28.05;;;;;;;;;;5020757;28;20422;-88
2021/11/20 06:36:28;;;;;;;65.35;28.17;;;;;;;;;;5019135;28;20440;-88
2021/11/20 06:38:58;;;;;;;65.57;28.10;;;;;;;;;;5023441;28;20906;-87
2021/11/20 06:41:29;;;;;;;75.93;28.17;;;;;;;;;;5023194;28;20423;-88
2021/11/20 06:43:56;;;;;;;48.13;27.48;;;;;;;;;;5020338;28;20417;-86
2021/11/20 06:46:23;;;;;;;60.63;28.60;;;;;;;;;;5019997;28;20411;-87
2021/11/20 06:48:51;;;;;;;53.45;26.02;;;;;;;;;;5015584;28;20406;-86
2021/11/20 06:51:19;;;;;;;61.58;28.00;;;;;;;;;;5024403;28;20783;-87
2021/11/20 06:53:47;;;;;;;52.55;28.10;;;;;;;;;;5019125;28;20491;-86
2021/11/20 06:56:16;;;;;;;65.30;27.75;;;;;;;;;;5021454;28;20450;-85
2021/11/20 07:01:28;;;;;;;56.53;28.65;;;;;;;;;;5022756;28;20486;-86
2021/11/20 07:03:59;;;;;;;63.67;28.55;;;;;;;;;;5026486;28;20425;-87
2021/11/20 07:06:29;;;;;;;54.85;26.75;;;;;;;;;;5020908;28;20426;-85
2021/11/20 07:08:57;;;;;;;45.83;26.17;;;;;;;;;;5024176;28;20428;-87
2021/11/20 07:11:26;;;;;;;58.97;28.05;;;;;;;;;;5025627;28;20420;-87
2021/11/20 07:13:53;;;;;;;66.30;29.33;;;;;;;;;;5026311;28;20969;-84
2021/11/20 07:16:23;;;;;;;59.20;29.20;;;;;;;;;;5020812;28;20414;-88
2021/11/20 07:18:51;;;;;;;54.67;28.48;;;;;;;;;;5014083;28;20418;-88
2021/11/20 07:21:24;;;;;;;55.42;27.58;;;;;;;;;;5020713;28;20424;-87
2021/11/20 07:23:51;;;;;;;51.17;29.23;;;;;;;;;;5013753;28;20427;-87
2021/11/20 07:26:18;;;;;;;56.42;28.00;;;;;;;;;;5015706;28;20414;-87
2021/11/20 07:28:45;;;;;;;61.63;28.45;;;;;;;;;;5017061;28;20407;-87
2021/11/20 07:31:13;;;;;;;52.97;28.90;;;;;;;;;;4999198;28;20411;-87
2021/11/20 07:33:40;;;;;;;45.80;27.77;;;;;;;;;;5019731;28;20401;-88
2021/11/20 07:36:09;;;;;;;52.63;27.75;;;;;;;;;;5023523;28;20500;-87
2021/11/20 07:38:40;;;;;;;49.03;28.67;;;;;;;;;;5018518;28;20455;-87
2021/11/20 07:41:07;;;;;;;45.63;29.48;;;;;;;;;;5022902;28;20401;-87
2021/11/20 07:43:35;;;;;;;45.42;29.38;;;;;;;;;;5019603;28;20422;-88
2021/11/20 07:46:03;;;;;;;56.05;30.05;;;;;;;;;;5018325;28;20427;-88
2021/11/20 07:48:31;;;;;;;73.55;31.20;;;;;;;;;;5004513;28;20427;-87
2021/11/20 07:50:59;;;;;;;78.13;30.67;;;;;;;;;;5018750;28;20415;-86
2021/11/20 07:53:25;;;;;;;68.22;31.60;;;;;;;;;;5017696;28;20408;-87
2021/11/20 07:55:54;;;;;;;50.88;29.52;;;;;;;;;;5024456;28;20909;-87
2021/11/20 07:58:22;;;;;;;55.53;30.45;;;;;;;;;;5011214;28;20531;-86
2021/11/20 08:00:50;;;;;;;63.72;30.80;;;;;;;;;;5017737;28;20409;-87
2021/11/20 08:03:18;;;;;;;58.90;33.13;;;;;;;;;;5017406;28;20424;-87
2021/11/20 08:05:46;;;;;;;56.00;31.90;;;;;;;;;;5022207;28;20839;-87
2021/11/20 08:08:13;;;;;;;67.78;32.80;;;;;;;;;;5017864;28;20405;-87
2021/11/20 08:10:40;;;;;;;71.20;33.60;;;;;;;;;;5013416;28;20411;-87
2021/11/20 08:13:11;;;;;;;80.03;33.35;;;;;;;;;;5015572;28;20426;-87
2021/11/20 08:15:39;;;;;;;62.67;34.00;;;;;;;;;;5024833;28;20428;-87
2021/11/20 08:18:06;;;;;;;71.82;34.30;;;;;;;;;;5026254;28;20409;-87
2021/11/20 08:20:36;;;;;;;77.22;33.88;;;;;;;;;;5016898;28;20415;-87
2021/11/20 08:23:05;;;;;;;62.10;34.60;;;;;;;;;;5018321;28;20427;-87
2021/11/20 08:25:32;;;;;;;76.47;34.30;;;;;;;;;;5026849;28;20458;-87
2021/11/20 08:28:00;;;;;;;62.20;32.42;;;;;;;;;;5026285;28;20409;-87
2021/11/20 08:30:30;;;;;;;59.05;32.72;;;;;;;;;;5020395;28;20879;-87
2021/11/20 08:32:58;;;;;;;57.45;32.15;;;;;;;;;;5013958;28;20429;-87
2021/11/20 08:35:26;;;;;;;54.22;30.83;;;;;;;;;;5018308;28;20401;-87
2021/11/20 08:37:53;;;;;;;61.75;32.75;;;;;;;;;;5023245;28;20414;-87
2021/11/20 08:40:22;;;;;;;64.05;31.75;;;;;;;;;;5014971;28;21040;-88
2021/11/20 08:42:49;;;;;;;70.45;31.45;;;;;;;;;;5019448;28;20399;-87
2021/11/20 08:45:19;;;;;;;66.63;32.67;;;;;;;;;;5014711;28;20421;-87
2021/11/20 08:47:52;;;;;;;66.45;32.35;;;;;;;;;;5014173;28;20414;-88
2021/11/20 08:50:22;;;;;;;66.45;30.73;;;;;;;;;;5020838;28;20404;-87
2021/11/20 08:52:49;;;;;;;74.65;31.92;;;;;;;;;;5017676;28;20405;-88
2021/11/20 08:55:16;;;;;;;66.97;32.03;;;;;;;;;;5018042;28;20958;-87
2021/11/20 08:57:44;;;;;;;59.30;30.45;;;;;;;;;;5021224;28;20873;-87
2021/11/20 09:00:15;;;;;;;63.10;31.00;;;;;;;;;;5018192;28;20423;-86
2021/11/20 09:02:49;;;;;;;57.00;30.95;;;;;;;;;;5002722;28;20399;-87
2021/11/20 09:05:23;;;;;;;61.22;30.67;;;;;;;;;;5022342;28;25182;-86
2021/11/20 09:07:54;;;;;;;51.63;29.87;;;;;;;;;;5018988;28;20855;-87
2021/11/20 09:10:25;;;;;;;71.35;32.22;;;;;;;;;;5007540;28;20409;-87
2021/11/20 09:12:55;;;;;;;66.53;32.27;;;;;;;;;;5017570;28;20413;-86
2021/11/20 09:15:28;;;;;;;60.67;31.60;;;;;;;;;;5023412;28;20416;-87
2021/11/20 09:17:56;;;;;;;61.17;31.57;;;;;;;;;;5018954;28;20411;-87
2021/11/20 09:20:23;;;;;;;62.13;33.17;;;;;;;;;;5022075;28;20491;-87
2021/11/20 09:22:50;;;;;;;61.42;32.30;;;;;;;;;;5017658;28;20403;-87
2021/11/20 09:25:18;;;;;;;63.33;33.10;;;;;;;;;;5010264;28;20898;-87
2021/11/20 09:27:45;;;;;;;67.38;34.10;;;;;;;;;;5014070;28;20405;-87
2021/11/20 09:30:15;;;;;;;65.55;32.85;;;;;;;;;;5020000;28;20413;-86
2021/11/20 09:32:42;;;;;;;68.45;32.53;;;;;;;;;;5015695;28;21028;-87
2021/11/20 09:35:11;;;;;;;72.10;34.55;;;;;;;;;;5018811;28;20463;-87
2021/11/20 09:37:38;;;;;;;72.45;34.00;;;;;;;;;;5024945;28;20409;-87
2021/11/20 09:40:06;;;;;;;73.85;34.85;;;;;;;;;;5014989;28;20406;-87
2021/11/20 09:42:39;;;;;;;78.18;38.47;;;;;;;;;;5014028;28;20417;-87
2021/11/20 09:45:10;;;;;;;123.97;70.68;;;;;;;;;;5020909;28;20853;-87
2021/11/20 09:47:50;;;;;;;94.93;49.65;;;;;;;;;;5020240;28;20405;-87
2021/11/20 09:50:21;;;;;;;75.80;37.10;;;;;;;;;;5018321;28;20921;-87
2021/11/20 09:52:50;;;;;;;80.18;44.05;;;;;;;;;;5024506;28;20417;-86
2021/11/20 09:55:20;;;;;;;81.07;38.07;;;;;;;;;;5018582;28;20405;-87
2021/11/20 09:58:04;;;;;;;75.00;36.17;;;;;;;;;;5014669;28;20389;-87
2021/11/20 10:00:48;;;;;;;74.60;34.95;;;;;;;;;;5018110;28;20437;-87
2021/11/20 10:03:32;;;;;;;68.50;35.35;;;;;;;;;;5027676;28;20955;-87
2021/11/20 10:06:04;;;;;;;66.85;34.63;;;;;;;;;;5021491;28;20473;-86
2021/11/20 10:08:33;;;;;;;70.03;34.88;;;;;;;;;;5014511;28;20419;-86
2021/11/20 10:11:12;;;;;;;73.03;35.20;;;;;;;;;;5024045;28;20401;-87
2021/11/20 10:13:48;;;;;;;78.88;38.95;;;;;;;;;;5018683;28;20818;-87
2021/11/20 10:16:21;;;;;;;67.05;34.88;;;;;;;;;;5024351;28;25120;-86
2021/11/20 10:18:54;;;;;;;85.60;42.15;;;;;;;;;;5020487;28;20472;-87
2021/11/20 10:21:30;;;;;;;88.57;44.97;;;;;;;;;;5021176;28;20413;-87
2021/11/20 10:24:07;;;;;;;76.95;39.70;;;;;;;;;;5019303;28;20425;-86
2021/11/20 10:26:48;;;;;;;68.68;34.58;;;;;;;;;;5019895;28;20485;-86
2021/11/20 10:29:52;;;;;;;71.07;35.97;;;;;;;;;;5021228;28;20459;-87
2021/11/20 10:32:22;;;;;;;86.47;41.25;;;;;;;;;;4985642;28;20713;-86
2021/11/20 10:34:54;;;;;;;89.65;43.83;;;;;;;;;;5025106;28;20920;-86
2021/11/20 10:37:27;;;;;;;90.95;45.45;;;;;;;;;;5014319;28;20414;-86
2021/11/20 10:40:02;;;;;;;79.00;39.47;;;;;;;;;;5016453;28;20998;-86
2021/11/20 10:42:35;;;;;;;76.20;36.92;;;;;;;;;;5019106;28;20958;-87
2021/11/20 10:45:09;;;;;;;75.95;35.95;;;;;;;;;;5018901;28;20416;-86
2021/11/20 10:47:39;;;;;;;77.63;36.70;;;;;;;;;;5014789;28;20757;-87
2021/11/20 10:50:29;;;;;;;77.95;37.65;;;;;;;;;;5020426;28;20406;-87
2021/11/20 10:53:33;;;;;;;82.13;39.97;;;;;;;;;;5021115;28;20483;-86
2021/11/20 10:56:23;;;;;;;84.53;39.42;;;;;;;;;;5016206;28;20407;-86
2021/11/20 10:59:32;;;;;;;80.07;39.10;;;;;;;;;;5016985;28;20407;-87
2021/11/20 11:02:29;;;;;;;93.30;45.25;;;;;;;;;;5019155;28;20751;-86
2021/11/20 11:05:15;;;;;;;83.32;38.75;;;;;;;;;;5023052;28;20911;-86
2021/11/20 11:07:53;;;;;;;89.00;47.67;;;;;;;;;;5019962;28;20828;-87
2021/11/20 11:10:29;;;;;;;84.83;40.60;;;;;;;;;;5017594;28;20430;-87
2021/11/20 11:13:01;;;;;;;76.25;37.45;;;;;;;;;;5022466;28;25095;-88
2021/11/20 11:15:40;;;;;;;81.88;39.10;;;;;;;;;;5018290;28;20409;-87
2021/11/20 11:18:39;;;;;;;81.35;39.92;;;;;;;;;;5013930;28;25168;-87
2021/11/20 11:21:42;;;;;;;79.07;36.90;;;;;;;;;;5018867;28;20437;-87
2021/11/20 11:24:30;;;;;;;73.38;36.78;;;;;;;;;;4955348;28;25117;-87
2021/11/20 11:27:05;;;;;;;83.28;40.53;;;;;;;;;;5016232;28;20807;-87
2021/11/20 11:29:47;;;;;;;78.50;38.05;;;;;;;;;;5023236;28;20454;-86
2021/11/20 11:32:16;;;;;;;74.28;37.08;;;;;;;;;;5014644;28;25120;-87
2021/11/20 11:34:48;;;;;;;84.55;39.55;;;;;;;;;;5022410;28;20448;-87
2021/11/20 11:37:25;;;;;;;106.37;50.37;;;;;;;;;;5026623;28;20490;-87
2021/11/20 11:39:58;;;;;;;118.57;55.40;;;;;;;;;;5015672;28;25101;-87
2021/11/20 11:42:50;;;;;;;76.63;37.60;;;;;;;;;;5015862;28;20488;-86
2021/11/20 11:45:57;;;;;;;82.10;37.92;;;;;;;;;;5014479;28;20432;-85
2021/11/20 11:48:38;;;;;;;84.60;38.97;;;;;;;;;;4981559;28;25118;-85
2021/11/20 11:51:30;;;;;;;82.13;39.23;;;;;;;;;;5017159;28;20536;-85
2021/11/20 11:54:08;;;;;;;84.90;39.70;;;;;;;;;;5019080;28;25121;-85
2021/11/20 11:56:38;;;;;;;89.70;41.72;;;;;;;;;;5016520;28;25121;-87
2021/11/20 11:59:21;;;;;;;95.65;42.47;;;;;;;;;;5018703;28;20504;-86
2021/11/20 12:02:02;;;;;;;88.28;41.10;;;;;;;;;;5018764;28;25130;-86
2021/11/20 12:04:35;;;;;;;85.45;43.17;;;;;;;;;;5014755;28;25162;-87
2021/11/20 12:07:45;;;;;;;80.10;39.60;;;;;;;;;;5020974;28;25121;-85
2021/11/20 12:10:30;;;;;;;80.25;39.63;;;;;;;;;;5017010;28;20424;-86
2021/11/20 12:13:03;;;;;;;77.93;38.88;;;;;;;;;;5020575;28;20825;-86
2021/11/20 12:15:37;;;;;;;78.93;39.90;;;;;;;;;;5020652;28;20457;-86
2021/11/20 12:18:22;;;;;;;80.60;40.22;;;;;;;;;;5016158;28;20404;-87
2021/11/20 12:20:56;;;;;;;81.43;38.33;;;;;;;;;;5011536;28;25111;-86
2021/11/20 12:23:37;;;;;;;103.95;52.08;;;;;;;;;;5019280;28;25107;-86
2021/11/20 12:26:17;;;;;;;119.45;59.25;;;;;;;;;;5018962;28;25161;-86
2021/11/20 12:29:05;;;;;;;84.50;41.08;;;;;;;;;;5018468;28;20417;-86
2021/11/20 12:31:54;;;;;;;83.72;40.65;;;;;;;;;;5021192;28;25122;-86
2021/11/20 12:34:31;;;;;;;85.90;42.38;;;;;;;;;;5018585;28;25208;-85
2021/11/20 12:37:31;;;;;;;83.82;40.83;;;;;;;;;;5017781;28;20488;-87
2021/11/20 12:40:13;;;;;;;75.63;39.17;;;;;;;;;;5020280;28;20425;-86
2021/11/20 12:42:54;;;;;;;85.25;41.42;;;;;;;;;;5021902;28;20409;-86
2021/11/20 12:45:51;;;;;;;83.33;40.93;;;;;;;;;;5020520;28;20471;-87
2021/11/20 12:49:07;;;;;;;87.90;40.97;;;;;;;;;;5014562;28;20483;-87
2021/11/20 12:51:53;;;;;;;82.13;40.92;;;;;;;;;;5001376;28;20429;-87
2021/11/20 12:54:25;;;;;;;86.40;41.05;;;;;;;;;;5020180;28;20470;-87
2021/11/20 12:57:06;;;;;;;75.97;38.30;;;;;;;;;;5019830;28;20479;-87
2021/11/20 12:59:36;;;;;;;81.10;41.92;;;;;;;;;;5021848;28;20499;-87
2021/11/20 13:02:08;;;;;;;80.13;40.53;;;;;;;;;;5016866;28;20935;-87
2021/11/20 13:04:43;;;;;;;76.63;40.58;;;;;;;;;;5020103;28;20404;-86
2021/11/20 13:07:13;;;;;;;81.32;40.45;;;;;;;;;;5023546;28;20483;-85
2021/11/20 13:09:50;;;;;;;86.15;41.75;;;;;;;;;;5023178;28;20936;-88
2021/11/20 13:12:21;;;;;;;84.28;42.42;;;;;;;;;;5018531;28;20413;-87
2021/11/20 13:15:21;;;;;;;84.78;41.00;;;;;;;;;;5020135;28;20417;-87
2021/11/20 13:17:53;;;;;;;83.30;40.63;;;;;;;;;;5023339;28;20417;-88
2021/11/20 13:20:24;;;;;;;83.20;40.78;;;;;;;;;;5024035;28;20405;-87
2021/11/20 13:23:08;;;;;;;83.00;41.85;;;;;;;;;;5021839;28;20409;-88
2021/11/20 13:25:46;;;;;;;82.38;41.70;;;;;;;;;;5025436;28;20459;-88
2021/11/20 13:28:14;;;;;;;87.85;43.78;;;;;;;;;;5025173;28;20466;-88
2021/11/20 13:30:43;;;;;;;82.63;41.93;;;;;;;;;;5025477;28;20428;-88
2021/11/20 13:33:11;;;;;;;90.57;41.33;;;;;;;;;;5024218;28;21034;-87
2021/11/20 13:35:40;;;;;;;92.55;44.13;;;;;;;;;;5009378;28;20567;-88
2021/11/20 13:38:10;;;;;;;93.87;45.23;;;;;;;;;;5013909;28;20435;-88
2021/11/20 13:40:40;;;;;;;96.38;46.40;;;;;;;;;;5002884;28;20437;-88
2021/11/20 13:43:17;;;;;;;92.97;45.50;;;;;;;;;;5003843;28;20414;-88
2021/11/20 13:45:48;;;;;;;94.15;44.05;;;;;;;;;;4987450;28;25110;-88
2021/11/20 13:48:18;;;;;;;93.00;45.45;;;;;;;;;;5006673;28;20460;-88
2021/11/20 13:50:46;;;;;;;89.22;43.63;;;;;;;;;;5004669;28;20478;-89
2021/11/20 13:53:15;;;;;;;85.25;43.90;;;;;;;;;;4986961;28;20752;-84
2021/11/20 13:55:44;;;;;;;82.25;42.47;;;;;;;;;;5006195;28;20422;-87
2021/11/20 13:58:20;;;;;;;82.20;44.10;;;;;;;;;;5003999;28;20410;-88
2021/11/20 14:00:48;;;;;;;82.45;43.63;;;;;;;;;;5006029;28;20447;-89
2021/11/20 14:03:15;;;;;;;82.20;43.67;;;;;;;;;;4973943;28;20487;-90
2021/11/20 14:05:42;;;;;;;89.32;48.72;;;;;;;;;;5006486;28;20980;-87
2021/11/20 14:08:09;;;;;;;80.53;42.67;;;;;;;;;;5004325;28;20469;-90
2021/11/20 14:10:37;;;;;;;71.22;41.70;;;;;;;;;;5008240;28;20823;-91
2021/11/20 14:13:07;;;;;;;72.37;41.10;;;;;;;;;;5006337;28;20411;-90
2021/11/20 14:15:46;;;;;;;69.88;40.20;;;;;;;;;;5002598;28;20912;-90
2021/11/20 14:18:13;;;;;;;72.63;40.78;;;;;;;;;;5000739;28;20410;-90
2021/11/20 14:20:43;;;;;;;73.60;41.33;;;;;;;;;;4982958;28;20427;-90
2021/11/20 14:23:11;;;;;;;71.90;40.45;;;;;;;;;;4995653;28;20421;-85
2021/11/20 14:25:38;;;;;;;73.13;40.85;;;;;;;;;;4998697;28;20499;-89
2021/11/20 14:28:06;;;;;;;71.85;40.63;;;;;;;;;;4994928;28;20424;-91
2021/11/20 14:30:41;;;;;;;75.22;42.17;;;;;;;;;;4999576;28;20424;-84
2021/11/20 14:33:11;;;;;;;77.87;42.67;;;;;;;;;;5002817;28;20505;-91
2021/11/20 14:35:39;;;;;;;77.13;42.63;;;;;;;;;;5003942;28;20413;-91
2021/11/20 14:38:06;;;;;;;79.30;43.45;;;;;;;;;;4994218;28;20483;-91
2021/11/20 14:40:33;;;;;;;80.88;43.58;;;;;;;;;;5001615;28;20448;-91
2021/11/20 14:43:00;;;;;;;76.75;43.13;;;;;;;;;;5003317;28;20411;-91